Time;durP1;ratioP1;P1;durP2;ratioP2;P2;SDS_P1;SDS_P2;PMS_P1;PMS_P2;Temp;Humidity;BMP_temperature;BMP_pressure;BME280_temperature;BME280_humidity;BME280_pressure;Samples;Min_cycle;Max_cycle;Signal;HPM_P1;HPM_P2
2023/03/27 00:00:55;;;;;;;4.50;3.08;;;;;;;7.01;100.00;97798.50;5137984;28;20047;-63
2023/03/27 00:03:22;;;;;;;3.67;2.78;;;;;;;7.06;100.00;97800.88;5138511;28;20090;-61
2023/03/27 00:05:48;;;;;;;3.45;2.58;;;;;;;6.92;100.00;97798.78;5138339;27;20134;-67
2023/03/27 00:08:14;;;;;;;2.97;2.67;;;;;;;7.06;100.00;97800.88;5138182;28;20081;-68
2023/03/27 00:10:41;;;;;;;3.25;2.95;;;;;;;7.17;100.00;97801.78;5138354;28;20100;-67
2023/03/27 00:13:08;;;;;;;2.92;2.67;;;;;;;7.17;100.00;97803.72;5137934;28;20047;-60
2023/03/27 00:15:35;;;;;;;3.20;2.67;;;;;;;6.93;100.00;97805.81;5138174;28;20062;-68
2023/03/27 00:18:02;;;;;;;2.78;2.40;;;;;;;7.04;100.00;97809.44;5137844;28;20051;-66
2023/03/27 00:20:30;;;;;;;2.72;2.53;;;;;;;6.75;100.00;97805.63;5138165;28;20079;-65
2023/03/27 00:22:57;;;;;;;2.83;2.55;;;;;;;7.08;100.00;97804.03;5137651;28;20134;-63
2023/03/27 00:25:25;;;;;;;2.30;2.10;;;;;;;7.10;100.00;97806.34;5137900;28;20097;-66
2023/03/27 00:27:52;;;;;;;3.13;2.35;;;;;;;7.13;100.00;97813.78;5138065;28;20051;-64
2023/03/27 00:30:19;;;;;;;2.50;2.30;;;;;;;7.13;100.00;97813.78;5137865;28;20054;-68
2023/03/27 00:32:45;;;;;;;2.90;2.53;;;;;;;7.07;100.00;97799.72;5137820;28;20051;-68
2023/03/27 00:35:13;;;;;;;2.53;2.22;;;;;;;7.08;100.00;97804.78;5137606;27;20051;-58
2023/03/27 00:37:39;;;;;;;3.47;2.60;;;;;;;7.00;100.00;97805.91;5137938;28;20150;-61
2023/03/27 00:40:07;;;;;;;7.47;2.88;;;;;;;7.25;100.00;97806.13;5137411;28;20050;-66
2023/03/27 00:42:35;;;;;;;3.08;2.47;;;;;;;6.93;100.00;97805.00;5137626;28;20058;-60
2023/03/27 00:45:01;;;;;;;3.72;2.50;;;;;;;7.12;100.00;97807.56;5137457;28;20134;-62
2023/03/27 00:47:31;;;;;;;3.00;2.17;;;;;;;7.04;100.00;97808.66;5137848;28;20319;-68
2023/03/27 00:50:01;;;;;;;3.22;2.60;;;;;;;7.22;100.00;97797.91;5137365;28;20055;-66
2023/03/27 00:52:28;;;;;;;4.25;2.35;;;;;;;6.79;100.00;97803.72;5137580;28;20142;-60
2023/03/27 00:54:55;;;;;;;3.40;2.35;;;;;;;6.93;100.00;97810.47;5137714;28;20051;-62
2023/03/27 00:57:22;;;;;;;2.60;2.17;;;;;;;6.99;100.00;97807.03;5137627;28;20061;-68
2023/03/27 00:59:52;;;;;;;3.20;2.42;;;;;;;6.93;100.00;97808.56;5137532;28;20079;-68
2023/03/27 01:02:19;;;;;;;2.40;2.17;;;;;;;7.21;100.00;97815.44;5137353;28;20331;-65
2023/03/27 01:04:46;;;;;;;3.17;2.05;;;;;;;7.11;100.00;97813.38;5137545;27;20321;-65
2023/03/27 01:07:14;;;;;;;2.75;2.10;;;;;;;7.21;100.00;97815.44;5138511;27;20073;-60
2023/03/27 01:09:40;;;;;;;3.17;2.65;;;;;;;7.11;100.00;97816.13;5141489;28;20081;-58
2023/03/27 01:12:14;;;;;;;2.40;2.10;;;;;;;7.22;100.00;97806.09;5140885;28;20058;-63
2023/03/27 01:14:49;;;;;;;3.97;3.35;;;;;;;7.22;100.00;97820.50;5141447;28;20061;-59
2023/03/27 01:17:32;;;;;;;2.38;1.90;;;;;;;7.07;100.00;97810.63;5140981;28;20047;-60
2023/03/27 01:20:31;;;;;;;3.75;1.95;;;;;;;7.13;100.00;97816.50;5140552;28;20516;-68
2023/03/27 01:23:18;;;;;;;1.70;1.60;;;;;;;6.89;100.00;97815.88;5141041;28;20050;-59
2023/03/27 01:26:06;;;;;;;1.73;1.63;;;;;;;6.77;100.00;97808.75;5140672;28;20444;-67
2023/03/27 01:28:44;;;;;;;1.25;1.15;;;;;;;7.16;100.00;97807.59;5140706;28;20051;-60
2023/03/27 01:31:24;;;;;;;1.58;1.40;;;;;;;7.11;100.00;97775.25;5141470;28;20127;-67
2023/03/27 01:34:19;;;;;;;1.50;1.40;;;;;;;6.99;100.00;97768.88;5141455;28;20150;-60
2023/03/27 01:37:15;;;;;;;1.17;1.08;;;;;;;7.12;100.00;97777.56;5131646;28;20155;-59
2023/03/27 01:39:49;;;;;;;1.40;1.27;;;;;;;7.13;100.00;97773.72;5121429;28;20047;-60
2023/03/27 01:42:19;;;;;;;;;;;;;;;7.33;100.00;97774.28;5144598;28;20134;-59
2023/03/27 01:44:51;;;;;;;1.17;1.10;;;;;;;6.83;100.00;97750.06;5141007;28;20311;-66
2023/03/27 01:47:25;;;;;;;1.95;1.13;;;;;;;6.95;100.00;97789.88;5140424;28;20138;-62
2023/03/27 01:49:56;;;;;;;1.23;1.13;;;;;;;7.02;100.00;97800.84;5140668;28;20138;-68
2023/03/27 01:52:27;;;;;;;1.30;1.20;;;;;;;6.99;100.00;97819.88;5140243;28;20491;-67
2023/03/27 01:55:02;;;;;;;1.30;1.20;;;;;;;7.03;100.00;97828.88;5140757;28;20058;-61
2023/03/27 01:57:33;;;;;;;1.25;1.15;;;;;;;6.77;100.00;97829.78;5140009;28;20062;-61
2023/03/27 02:00:09;;;;;;;1.60;1.50;;;;;;;6.75;100.00;97846.47;5140188;28;20050;-67
2023/03/27 02:02:37;;;;;;;1.15;1.05;;;;;;;6.89;100.00;97848.56;5140341;28;20043;-66
2023/03/27 02:05:11;;;;;;;7.15;3.63;;;;;;;6.80;100.00;97853.56;5139977;27;20107;-59
2023/03/27 02:07:40;;;;;;;1.70;1.60;;;;;;;6.73;100.00;97850.72;5140302;28;20142;-65
2023/03/27 02:10:12;;;;;;;2.05;1.70;;;;;;;6.77;100.00;97849.63;5139997;28;20066;-69
2023/03/27 02:12:44;;;;;;;1.50;1.40;;;;;;;6.64;100.00;97856.47;5140255;28;20145;-66
2023/03/27 02:15:15;;;;;;;1.70;1.50;;;;;;;6.77;100.00;97855.06;5139724;28;20043;-60
2023/03/27 02:17:47;;;;;;;2.67;1.60;;;;;;;6.56;100.00;97852.06;5139896;27;20057;-57
2023/03/27 02:20:15;;;;;;;2.75;1.70;;;;;;;6.63;100.00;97851.38;5139901;28;20248;-60
2023/03/27 02:22:42;;;;;;;1.10;1.10;;;;;;;6.57;100.00;97856.38;5139889;28;20086;-59
2023/03/27 02:25:24;;;;;;;2.10;1.50;;;;;;;6.24;100.00;97865.28;5139973;28;20103;-61
2023/03/27 02:27:57;;;;;;;1.80;1.70;;;;;;;6.48;100.00;97858.59;5139922;28;20047;-62
2023/03/27 02:30:30;;;;;;;1.95;1.85;;;;;;;6.51;100.00;97860.56;5140036;28;20137;-58
2023/03/27 02:33:05;;;;;;;2.03;1.50;;;;;;;6.46;100.00;97869.06;5139600;28;20047;-60
2023/03/27 02:35:43;;;;;;;1.50;1.40;;;;;;;6.48;100.00;97873.00;5139840;27;20051;-64
2023/03/27 02:38:16;;;;;;;1.55;1.45;;;;;;;6.35;100.00;97879.81;5139683;28;20055;-60
2023/03/27 02:40:53;;;;;;;1.20;1.10;;;;;;;6.12;100.00;97886.09;5139835;28;20051;-60
2023/03/27 02:43:25;;;;;;;1.65;1.27;;;;;;;5.87;100.00;97887.63;5139572;28;20142;-64
2023/03/27 02:45:55;;;;;;;4.95;1.10;;;;;;;6.06;100.00;97890.25;5139458;28;20082;-66
2023/03/27 02:48:28;;;;;;;1.40;1.27;;;;;;;5.75;100.00;97885.88;5139571;28;20297;-66
2023/03/27 02:50:57;;;;;;;1.50;1.10;;;;;;;5.56;100.00;97881.28;5139213;28;20447;-61
2023/03/27 02:53:27;;;;;;;1.80;1.10;;;;;;;5.65;100.00;97889.22;5139708;28;20069;-64
2023/03/27 02:55:57;;;;;;;1.45;1.02;;;;;;;5.55;100.00;97881.66;5139148;28;20158;-67
2023/03/27 02:58:29;;;;;;;0.80;0.80;;;;;;;5.24;100.00;97888.09;5139373;28;20043;-66
2023/03/27 03:00:58;;;;;;;0.90;0.90;;;;;;;5.27;100.00;97888.16;5139297;28;20058;-63
2023/03/27 03:03:30;;;;;;;1.52;1.10;;;;;;;4.82;100.00;97895.06;5139207;28;20055;-66
2023/03/27 03:05:57;;;;;;;1.50;1.20;;;;;;;4.88;100.00;97906.44;5139168;27;20051;-63
2023/03/27 03:08:24;;;;;;;1.35;1.10;;;;;;;4.74;100.00;97908.88;5139121;28;20134;-62
2023/03/27 03:10:50;;;;;;;1.20;1.10;;;;;;;4.97;100.00;97912.44;5139225;28;20471;-62
2023/03/27 03:13:17;;;;;;;1.65;1.25;;;;;;;4.90;100.00;97915.81;5139076;28;20047;-57
2023/03/27 03:15:44;;;;;;;2.30;1.20;;;;;;;5.01;100.00;97917.94;5139311;28;20488;-66
2023/03/27 03:18:10;;;;;;;3.15;1.17;;;;;;;4.67;100.00;97925.78;5138836;28;20078;-65
2023/03/27 03:20:36;;;;;;;1.50;1.40;;;;;;;4.81;100.00;97917.94;5139374;28;20405;-68
2023/03/27 03:23:02;;;;;;;1.33;1.20;;;;;;;4.67;100.00;97923.88;5138672;28;20047;-61
2023/03/27 03:25:30;;;;;;;1.38;1.27;;;;;;;4.72;100.00;97929.00;5138872;28;20107;-60
2023/03/27 03:27:57;;;;;;;1.67;1.58;;;;;;;4.86;100.00;97925.78;5138941;28;20055;-60
2023/03/27 03:30:26;;;;;;;1.60;1.45;;;;;;;4.95;100.00;97928.31;5137715;27;20461;-66
2023/03/27 03:32:53;;;;;;;1.20;1.20;;;;;;;4.91;100.00;97941.03;5138853;28;20073;-62
2023/03/27 03:35:20;;;;;;;1.80;1.70;;;;;;;4.81;100.00;97934.22;5138612;27;20062;-65
2023/03/27 03:37:49;;;;;;;1.92;1.33;;;;;;;4.74;100.00;97933.31;5138785;28;20186;-60
2023/03/27 03:40:15;;;;;;;1.92;1.65;;;;;;;4.91;100.00;97932.88;5138353;28;20058;-59
2023/03/27 03:42:45;;;;;;;2.17;1.65;;;;;;;4.88;100.00;97926.22;5138756;28;20047;-63
2023/03/27 03:45:11;;;;;;;3.90;1.98;;;;;;;4.93;100.00;97927.84;5138557;28;20133;-63
2023/03/27 03:47:37;;;;;;;4.03;1.83;;;;;;;5.12;100.00;97927.84;5139068;28;20083;-66
2023/03/27 03:50:04;;;;;;;3.05;2.25;;;;;;;4.97;100.00;97919.81;5138208;28;20149;-62
2023/03/27 03:52:30;;;;;;;2.97;1.88;;;;;;;4.92;100.00;97927.06;5138433;28;20051;-69
2023/03/27 03:54:56;;;;;;;2.30;2.08;;;;;;;4.70;100.00;97925.09;5138482;28;20111;-62
2023/03/27 03:57:22;;;;;;;2.70;2.03;;;;;;;4.57;100.00;97926.34;5138287;28;20114;-60
2023/03/27 03:59:48;;;;;;;4.45;2.72;;;;;;;4.79;100.00;97919.44;5138469;28;20350;-59
2023/03/27 04:02:16;;;;;;;6.70;2.38;;;;;;;4.70;100.00;97912.28;5137912;28;20057;-62
2023/03/27 04:04:43;;;;;;;3.05;1.95;;;;;;;4.63;100.00;97903.19;5138393;27;20043;-67
2023/03/27 04:07:09;;;;;;;4.47;1.92;;;;;;;4.64;100.00;97907.50;5138053;28;20085;-67
2023/03/27 04:09:35;;;;;;;3.22;2.17;;;;;;;4.70;100.00;97915.00;5138402;28;20047;-65
2023/03/27 04:12:01;;;;;;;2.22;1.92;;;;;;;4.51;100.00;97909.56;5137906;28;20336;-62
2023/03/27 04:14:26;;;;;;;2.65;2.13;;;;;;;4.55;100.00;97893.34;5137759;28;20143;-63
2023/03/27 04:16:52;;;;;;;5.55;1.65;;;;;;;4.50;100.00;97880.84;5137866;28;20074;-62
2023/03/27 04:19:18;;;;;;;2.72;1.90;;;;;;;4.48;100.00;97886.63;5138192;28;20483;-60
2023/03/27 04:21:46;;;;;;;2.47;2.15;;;;;;;4.66;100.00;97883.47;5137896;28;20134;-60
2023/03/27 04:24:12;;;;;;;4.78;2.20;;;;;;;4.27;100.00;97879.97;5137583;28;20123;-58
2023/03/27 04:26:38;;;;;;;3.75;2.03;;;;;;;4.83;100.00;97864.06;5137961;28;20046;-60
2023/03/27 04:29:09;;;;;;;2.83;2.20;;;;;;;4.98;100.00;97878.69;5137828;28;20219;-59
2023/03/27 04:31:37;;;;;;;1.83;1.73;;;;;;;5.11;100.00;97904.56;5137979;28;20078;-63
2023/03/27 04:34:03;;;;;;;2.17;1.95;;;;;;;5.40;100.00;97913.25;5137521;28;20069;-65
2023/03/27 04:36:29;;;;;;;3.45;2.40;;;;;;;5.70;100.00;97928.91;5137975;27;20051;-64
2023/03/27 04:38:56;;;;;;;3.38;2.28;;;;;;;5.79;100.00;97949.25;5137528;28;20051;-65
2023/03/27 04:41:22;;;;;;;5.13;1.88;;;;;;;5.85;100.00;97968.78;5137702;27;20138;-65
2023/03/27 04:43:48;;;;;;;2.20;1.88;;;;;;;5.72;100.00;97981.78;5137295;28;20082;-66
2023/03/27 04:46:14;;;;;;;2.22;1.73;;;;;;;5.87;100.00;97980.88;5137667;28;20043;-60
2023/03/27 04:48:40;;;;;;;2.40;1.90;;;;;;;5.99;100.00;97969.06;5137495;28;20112;-57
2023/03/27 04:51:08;;;;;;;2.47;1.70;;;;;;;5.96;100.00;97958.91;5137216;28;20476;-58
2023/03/27 04:53:36;;;;;;;2.42;2.13;;;;;;;5.74;100.00;97929.75;5137487;28;20047;-62
2023/03/27 04:56:03;;;;;;;2.70;1.90;;;;;;;6.07;100.00;97929.94;5137102;28;20416;-60
2023/03/27 04:58:29;;;;;;;5.63;3.53;;;;;;;6.62;100.00;97877.81;5136964;28;20043;-63
2023/03/27 05:00:55;;;;;;;3.92;2.22;;;;;;;6.65;100.00;97787.22;5137386;28;20066;-65
2023/03/27 05:03:22;;;;;;;3.10;2.00;;;;;;;6.49;100.00;97734.91;5137953;28;20051;-64
2023/03/27 05:05:49;;;;;;;1.38;1.27;;;;;;;6.67;100.00;97692.31;5140968;27;20335;-64
2023/03/27 05:08:15;;;;;;;3.45;1.50;;;;;;;6.67;100.00;97616.06;5140596;28;20082;-67
2023/03/27 05:10:41;;;;;;;2.85;1.65;;;;;;;6.64;100.00;97562.38;5136979;28;20053;-59
2023/03/27 05:13:08;;;;;;;6.85;1.98;;;;;;;6.59;100.00;97549.09;5137254;28;20078;-65
2023/03/27 05:15:34;;;;;;;2.35;2.15;;;;;;;6.63;100.00;97577.16;5136797;28;20192;-64
2023/03/27 05:18:01;;;;;;;2.45;2.25;;;;;;;6.74;100.00;97601.75;5137025;28;20047;-67
2023/03/27 05:20:27;;;;;;;6.55;2.28;;;;;;;6.90;100.00;97561.38;5136589;28;20160;-63
2023/03/27 05:22:54;;;;;;;4.32;1.75;;;;;;;7.51;100.00;97455.38;5136615;28;20412;-67
2023/03/27 05:25:20;;;;;;;2.10;1.70;;;;;;;7.53;100.00;97311.22;5136747;28;20051;-69
2023/03/27 05:27:46;;;;;;;1.92;1.73;;;;;;;7.97;100.00;97138.13;5136814;28;20137;-61
2023/03/27 05:30:14;;;;;;;2.53;1.88;;;;;;;8.55;100.00;96909.22;5136885;28;20051;-58
2023/03/27 05:32:43;;;;;;;1.98;1.70;;;;;;;8.16;100.00;96719.28;5136673;28;20051;-66
2023/03/27 05:35:10;;;;;;;2.58;1.60;;;;;;;7.97;100.00;96743.28;5136857;27;20054;-61
2023/03/27 05:37:37;;;;;;;2.30;1.60;;;;;;;7.86;100.00;96805.34;5136422;28;20075;-61
2023/03/27 05:40:05;;;;;;;1.92;1.67;;;;;;;7.80;100.00;96837.00;5136864;28;20051;-66
2023/03/27 05:42:31;;;;;;;2.90;1.77;;;;;;;7.74;100.00;96844.06;5136312;28;20043;-58
2023/03/27 05:44:57;;;;;;;2.72;1.83;;;;;;;7.48;100.00;96859.03;5136359;28;20516;-61
2023/03/27 05:47:24;;;;;;;3.65;2.42;;;;;;;8.08;100.00;96826.97;5136711;28;20141;-61
2023/03/27 05:49:50;;;;;;;4.22;1.90;;;;;;;7.82;100.00;96779.28;5136599;28;20131;-58
2023/03/27 05:52:16;;;;;;;3.53;2.17;;;;;;;7.70;100.00;96778.63;5136672;27;20050;-56
2023/03/27 05:54:41;;;;;;;4.82;2.55;;;;;;;7.71;100.00;96782.13;5139638;28;20073;-61
2023/03/27 05:57:07;;;;;;;1.83;1.73;;;;;;;7.65;100.00;96767.38;5140305;28;20465;-61
2023/03/27 05:59:33;;;;;;;5.57;2.60;;;;;;;7.68;100.00;96780.19;5139826;28;20138;-64
2023/03/27 06:01:59;;;;;;;2.70;1.65;;;;;;;9.09;100.00;96726.25;5140048;28;20051;-66
2023/03/27 06:04:27;;;;;;;2.40;1.50;;;;;;;9.76;100.00;96589.50;5139713;27;20112;-66
2023/03/27 06:06:53;;;;;;;1.85;1.42;;;;;;;9.40;100.00;96587.47;5140044;28;20420;-60
2023/03/27 06:09:19;;;;;;;2.67;1.58;;;;;;;8.85;100.00;96591.56;5139928;28;20107;-60
2023/03/27 06:11:45;;;;;;;4.78;1.85;;;;;;;8.72;100.00;96583.94;5140062;28;20051;-59
2023/03/27 06:14:10;;;;;;;1.88;1.67;;;;;;;8.94;100.00;96586.34;5139769;28;20051;-61
2023/03/27 06:16:37;;;;;;;2.30;2.10;;;;;;;8.84;100.00;96579.09;5139822;28;20477;-62
2023/03/27 06:19:03;;;;;;;5.53;2.03;;;;;;;8.74;100.00;96582.78;5139744;28;20047;-61
2023/03/27 06:21:29;;;;;;;3.25;1.67;;;;;;;8.58;100.00;96581.47;5139404;28;20059;-61
2023/03/27 06:23:55;;;;;;;4.05;1.88;;;;;;;8.84;100.00;96587.31;5139668;28;20107;-58
2023/03/27 06:26:21;;;;;;;2.97;1.70;;;;;;;9.08;100.00;96597.03;5139390;28;20043;-64
2023/03/27 06:28:48;;;;;;;4.80;1.60;;;;;;;9.00;100.00;96603.00;5139704;28;20146;-64
2023/03/27 06:31:16;;;;;;;2.70;1.60;;;;;;;8.88;100.00;96605.16;5139362;28;20275;-60
2023/03/27 06:33:42;;;;;;;4.55;1.90;;;;;;;8.96;100.00;96608.53;5139711;28;20043;-59
2023/03/27 06:36:09;;;;;;;2.03;1.83;;;;;;;9.09;100.00;96597.78;5139035;27;20453;-62
2023/03/27 06:38:36;;;;;;;2.38;1.40;;;;;;;9.44;100.00;96599.13;5139315;28;20105;-64
2023/03/27 06:41:03;;;;;;;2.45;1.45;;;;;;;9.76;100.00;96650.47;5138893;28;20133;-58
2023/03/27 06:43:29;;;;;;;1.55;1.45;;;;;;;10.21;100.00;96707.47;5139230;28;20047;-63
2023/03/27 06:45:55;;;;;;;1.35;1.25;;;;;;;10.94;100.00;96787.00;5139102;28;20361;-63
2023/03/27 06:48:22;;;;;;;3.55;1.50;;;;;;;11.46;100.00;96874.78;5138981;28;20331;-58
2023/03/27 06:50:50;;;;;;;5.90;1.50;;;;;;;10.78;100.00;96900.84;5139238;28;20066;-61
2023/03/27 06:53:16;;;;;;;3.42;1.50;;;;;;;10.42;100.00;96856.16;5138903;28;20074;-64
2023/03/27 06:55:44;;;;;;;3.38;1.75;;;;;;;10.47;100.00;96814.59;5139272;28;20450;-69
2023/03/27 06:58:12;;;;;;;2.83;1.60;;;;;;;10.62;100.00;96820.53;5138878;28;20043;-65
2023/03/27 07:00:39;;;;;;;2.22;1.70;;;;;;;10.38;100.00;96822.56;5139024;28;20047;-66
2023/03/27 07:03:08;;;;;;;2.85;1.58;;;;;;;10.25;100.00;96793.03;5138695;28;20047;-68
2023/03/27 07:05:36;;;;;;;4.35;1.83;;;;;;;9.81;100.00;96795.00;5137796;27;20046;-64
2023/03/27 07:08:03;;;;;;;2.85;1.83;;;;;;;10.16;100.00;96778.34;5138276;28;20079;-61
2023/03/27 07:10:30;;;;;;;8.43;4.75;;;;;;;10.05;100.00;96778.56;5138477;28;20417;-61
2023/03/27 07:12:56;;;;;;;3.50;1.90;;;;;;;11.33;100.00;96808.06;5138676;28;20051;-57
2023/03/27 07:15:23;;;;;;;2.47;1.75;;;;;;;12.11;100.00;96898.75;5138755;28;20138;-56
2023/03/27 07:17:54;;;;;;;4.10;1.98;;;;;;;12.89;100.00;96975.69;5138875;28;20406;-60
2023/03/27 07:20:21;;;;;;;3.47;2.10;;;;;;;13.64;100.00;97066.47;5138603;28;20129;-60
2023/03/27 07:22:46;;;;;;;3.55;1.90;;;;;;;14.76;100.00;97128.13;5138929;28;20047;-65
2023/03/27 07:25:12;;;;;;;1.75;1.63;;;;;;;15.06;100.00;97165.41;5138477;28;20058;-61
2023/03/27 07:27:39;;;;;;;2.85;1.73;;;;;;;15.50;100.00;97210.50;5138667;28;20316;-64
2023/03/27 07:30:10;;;;;;;2.38;1.17;;;;;;;14.94;100.00;97215.88;5138205;28;20417;-62
2023/03/27 07:32:37;;;;;;;4.15;2.00;;;;;;;14.82;100.00;97203.59;5138839;28;20305;-61
2023/03/27 07:35:04;;;;;;;2.88;1.90;;;;;;;14.26;100.00;97202.06;5137976;27;20382;-64
2023/03/27 07:37:30;;;;;;;2.90;1.73;;;;;;;15.07;100.00;97222.16;5138307;28;20158;-60
2023/03/27 07:39:56;;;;;;;2.53;1.70;;;;;;;15.71;100.00;97235.91;5138447;28;20124;-66
2023/03/27 07:42:22;;;;;;;2.25;1.60;;;;;;;15.75;100.00;97231.03;5138179;28;20329;-65
2023/03/27 07:44:47;;;;;;;1.88;1.42;;;;;;;15.52;100.00;97254.22;5138501;28;20086;-62
2023/03/27 07:47:14;;;;;;;2.65;1.40;;;;;;;14.44;100.00;97256.69;5138123;28;20090;-63
2023/03/27 07:49:40;;;;;;;4.03;1.80;;;;;;;13.40;100.00;97231.09;5138465;28;20379;-64
2023/03/27 07:52:07;;;;;;;2.38;1.63;;;;;;;13.02;100.00;97197.75;5138345;28;20066;-65
2023/03/27 07:54:34;;;;;;;2.35;1.52;;;;;;;12.96;100.00;97178.22;5138441;28;20058;-61
2023/03/27 07:57:00;;;;;;;2.97;1.73;;;;;;;12.83;100.00;97202.91;5138127;28;20047;-63
2023/03/27 07:59:27;;;;;;;2.72;1.70;;;;;;;12.11;100.00;97187.16;5138568;28;20057;-64
2023/03/27 08:01:53;;;;;;;1.63;1.52;;;;;;;11.80;100.00;97150.09;5137745;28;20421;-60
2023/03/27 08:04:19;;;;;;;4.22;1.83;;;;;;;11.63;100.00;97119.03;5138247;27;20055;-60
2023/03/27 08:06:45;;;;;;;5.82;1.92;;;;;;;11.43;100.00;97086.09;5138239;28;20082;-61
2023/03/27 08:09:11;;;;;;;4.47;1.73;;;;;;;10.95;100.00;97070.91;5137998;28;20133;-69
2023/03/27 08:11:39;;;;;;;7.38;2.80;;;;;;;10.71;100.00;97062.69;5137649;28;20417;-63
2023/03/27 08:14:05;;;;;;;7.32;2.38;;;;;;;10.56;100.00;97078.59;5137853;28;20050;-64
2023/03/27 08:16:31;;;;;;;2.65;1.88;;;;;;;10.51;100.00;97061.84;5137804;27;20138;-63
2023/03/27 08:18:59;;;;;;;6.85;1.70;;;;;;;10.45;100.00;97093.63;5138323;28;20055;-61
2023/03/27 08:21:27;;;;;;;2.97;1.35;;;;;;;10.97;100.00;97077.50;5141274;28;20091;-59
2023/03/27 08:23:54;;;;;;;7.13;3.10;;;;;;;10.38;100.00;97093.72;5138573;28;20058;-61
2023/03/27 08:26:20;;;;;;;2.05;1.52;;;;;;;10.38;100.00;97088.25;5137949;28;20137;-66
2023/03/27 08:28:46;;;;;;;5.55;3.35;;;;;;;11.02;100.00;97081.72;5137510;28;20142;-64
2023/03/27 08:31:14;;;;;;;3.78;1.60;;;;;;;11.05;100.00;97141.22;5137927;28;20059;-60
2023/03/27 08:33:41;;;;;;;2.63;1.65;;;;;;;12.38;100.00;97162.25;5137690;28;20138;-71
2023/03/27 08:36:08;;;;;;;3.15;1.77;;;;;;;13.62;100.00;97192.78;5137236;27;20047;-63
2023/03/27 08:38:38;;;;;;;3.78;1.63;;;;;;;14.53;100.00;97258.84;5137351;28;20047;-69
2023/03/27 08:41:05;;;;;;;3.38;1.45;;;;;;;14.82;98.09;97283.59;5137154;28;20057;-64
2023/03/27 08:43:36;;;;;;;3.47;1.52;;;;;;;15.04;100.00;97267.97;5137377;28;20431;-64
2023/03/27 08:46:06;;;;;;;2.95;1.40;;;;;;;16.11;91.38;97290.59;5137201;28;20141;-66
2023/03/27 08:48:38;;;;;;;1.95;1.30;;;;;;;16.29;85.55;97299.03;5137398;28;20426;-62
2023/03/27 08:51:08;;;;;;;3.33;1.60;;;;;;;14.57;91.67;97290.59;5137085;28;20047;-69
2023/03/27 08:53:40;;;;;;;1.63;1.25;;;;;;;14.63;93.75;97299.13;5137553;28;20491;-66
2023/03/27 08:56:12;;;;;;;4.45;2.72;;;;;;;13.98;100.00;97283.50;5136792;28;20055;-62
2023/03/27 08:58:37;;;;;;;4.60;2.15;;;;;;;14.98;93.97;97291.78;5137363;28;20059;-66
2023/03/27 09:01:10;;;;;;;3.67;1.95;;;;;;;15.71;93.84;97296.66;5137411;28;20099;-68
2023/03/27 09:03:43;;;;;;;1.60;1.50;;;;;;;15.87;90.72;97299.28;5137076;28;20062;-70
2023/03/27 09:06:16;;;;;;;1.55;1.45;;;;;;;16.42;79.38;97318.34;5137406;27;20072;-66
2023/03/27 09:08:51;;;;;;;9.15;2.38;;;;;;;15.94;90.99;97307.34;5137093;28;20059;-65
2023/03/27 09:11:28;;;;;;;4.90;1.45;;;;;;;15.01;81.20;97309.47;5137655;28;20055;-65
2023/03/27 09:13:54;;;;;;;4.60;1.25;;;;;;;14.91;85.51;97316.06;5137457;28;20069;-69
2023/03/27 09:16:27;;;;;;;1.50;1.30;;;;;;;14.39;91.09;97301.31;5137366;28;20379;-66
2023/03/27 09:19:00;;;;;;;2.88;1.67;;;;;;;14.86;84.19;97309.13;5137025;28;20047;-69
2023/03/27 09:21:34;;;;;;;3.28;1.75;;;;;;;15.38;87.89;97313.44;5136916;28;20146;-62
2023/03/27 09:24:05;;;;;;;;;;;;;;;15.35;79.27;97341.19;5137542;28;20137;-62
2023/03/27 09:26:34;;;;;;;1.75;1.60;;;;;;;14.67;82.32;97332.13;5136654;28;20324;-65
2023/03/27 09:29:01;;;;;;;3.33;2.03;;;;;;;15.24;83.01;97331.22;5139171;27;20054;-62
2023/03/27 09:31:31;;;;;;;3.13;1.63;;;;;;;14.44;90.66;97319.31;5140416;28;20055;-64
2023/03/27 09:34:01;;;;;;;1.95;1.42;;;;;;;15.18;88.02;97323.94;5140741;28;20087;-69
2023/03/27 09:36:27;;;;;;;2.72;1.23;;;;;;;15.09;86.77;97323.81;5140035;27;20130;-67
2023/03/27 09:39:00;;;;;;;1.20;1.00;;;;;;;14.40;85.89;97337.94;5140156;28;20054;-66
2023/03/27 09:41:32;;;;;;;2.67;1.17;;;;;;;14.14;90.27;97332.31;5140312;28;20055;-62
2023/03/27 09:44:05;;;;;;;3.35;1.13;;;;;;;14.20;91.23;97332.56;5140183;28;20058;-63
2023/03/27 09:46:35;;;;;;;1.40;1.23;;;;;;;13.79;89.14;97336.72;5140257;28;20058;-68
2023/03/27 09:49:10;;;;;;;3.65;1.40;;;;;;;13.83;95.20;97324.44;5139886;28;20448;-64
2023/03/27 09:51:39;;;;;;;4.75;1.50;;;;;;;14.35;93.52;97322.69;5140226;28;20047;-65
2023/03/27 09:54:06;;;;;;;5.35;1.60;;;;;;;14.22;92.82;97330.91;5140047;28;20051;-68
2023/03/27 09:56:37;;;;;;;1.92;1.70;;;;;;;14.26;94.62;97331.59;5140221;28;20142;-69
2023/03/27 09:59:09;;;;;;;2.85;1.50;;;;;;;13.23;97.07;97339.56;5139661;28;20138;-64
2023/03/27 10:01:36;;;;;;;5.38;1.42;;;;;;;12.60;100.00;97327.50;5139907;28;20394;-68
2023/03/27 10:04:12;;;;;;;2.58;1.58;;;;;;;13.18;100.00;97327.09;5139737;28;20063;-61
2023/03/27 10:06:42;;;;;;;2.20;1.25;;;;;;;13.90;98.40;97337.25;5139637;28;20047;-68
2023/03/27 10:09:19;;;;;;;2.85;1.55;;;;;;;13.76;95.32;97343.09;5139797;28;20150;-63
2023/03/27 10:11:47;;;;;;;3.90;1.73;;;;;;;13.32;93.28;97351.56;5139545;28;20050;-66
2023/03/27 10:14:17;;;;;;;1.17;1.10;;;;;;;12.86;96.47;97350.56;5139813;28;20047;-63
2023/03/27 10:16:46;;;;;;;1.70;1.38;;;;;;;12.31;100.00;97337.50;5139573;28;20487;-63
2023/03/27 10:19:21;;;;;;;2.50;1.60;;;;;;;12.48;100.00;97323.41;5139943;28;20057;-68
2023/03/27 10:21:47;;;;;;;6.30;1.70;;;;;;;12.64;100.00;97339.19;5139445;28;20051;-62
2023/03/27 10:24:20;;;;;;;4.65;2.70;;;;;;;12.49;100.00;97326.91;5139422;28;20062;-67
2023/03/27 10:26:48;;;;;;;3.83;1.25;;;;;;;12.40;100.00;97334.97;5139749;28;20059;-67
2023/03/27 10:29:22;;;;;;;3.38;1.80;;;;;;;12.30;100.00;97331.22;5139382;28;20078;-64
2023/03/27 10:31:51;;;;;;;1.40;1.30;;;;;;;12.16;100.00;97348.75;5139856;28;20498;-69
2023/03/27 10:34:32;;;;;;;3.58;1.60;;;;;;;11.95;100.00;97336.13;5139121;27;20051;-61
2023/03/27 10:37:00;;;;;;;3.00;1.30;;;;;;;11.81;100.00;97328.13;5139639;28;20053;-62
2023/03/27 10:39:28;;;;;;;1.80;1.50;;;;;;;12.19;100.00;97333.38;5139138;27;20047;-62
2023/03/27 10:41:55;;;;;;;2.45;1.50;;;;;;;12.04;100.00;97326.59;5139531;28;20381;-63
2023/03/27 10:44:24;;;;;;;2.05;1.33;;;;;;;11.81;100.00;97322.63;5139323;28;20047;-68
2023/03/27 10:46:51;;;;;;;4.90;1.48;;;;;;;11.77;100.00;97313.69;5139610;28;20073;-67
2023/03/27 10:49:27;;;;;;;2.00;1.30;;;;;;;11.57;100.00;97324.59;5139247;28;20420;-66
2023/03/27 10:52:00;;;;;;;3.10;1.52;;;;;;;12.15;100.00;97327.16;5139242;28;20151;-62
2023/03/27 10:54:33;;;;;;;3.05;1.23;;;;;;;13.03;100.00;97321.13;5139458;28;20316;-71
2023/03/27 10:57:02;;;;;;;3.80;1.45;;;;;;;12.75;99.75;97344.47;5139108;28;20103;-65
2023/03/27 10:59:30;;;;;;;2.80;1.67;;;;;;;13.01;96.92;97342.78;5139151;28;20100;-67
2023/03/27 11:02:01;;;;;;;5.90;1.30;;;;;;;12.62;100.00;97335.31;5138557;28;20047;-63
2023/03/27 11:04:38;;;;;;;2.10;1.05;;;;;;;13.27;99.02;97351.31;5138912;27;20066;-65
2023/03/27 11:07:11;;;;;;;8.35;1.58;;;;;;;13.47;100.00;97332.75;5139203;28;20055;-67
2023/03/27 11:09:46;;;;;;;2.85;1.25;;;;;;;13.21;98.77;97342.75;5138572;28;20058;-67
2023/03/27 11:12:13;;;;;;;3.00;1.23;;;;;;;12.81;96.05;97348.28;5138992;28;20083;-66
2023/03/27 11:14:47;;;;;;;5.05;1.40;;;;;;;12.45;97.86;97342.72;5138908;28;20093;-67
2023/03/27 11:17:17;;;;;;;1.25;1.15;;;;;;;12.33;93.75;97359.81;5139009;28;20112;-63
2023/03/27 11:19:51;;;;;;;2.15;1.20;;;;;;;11.99;96.37;97358.81;5138894;28;20048;-64
2023/03/27 11:22:23;;;;;;;4.03;1.30;;;;;;;11.95;98.57;97363.59;5140847;28;20058;-66
2023/03/27 11:24:53;;;;;;;2.25;1.10;;;;;;;12.03;100.00;97358.78;5139261;28;20368;-62
2023/03/27 11:27:27;;;;;;;5.32;1.30;;;;;;;11.94;100.00;97350.28;5138100;28;20493;-64
2023/03/27 11:30:01;;;;;;;3.03;1.55;;;;;;;12.13;100.00;97337.78;5138766;28;20211;-67
2023/03/27 11:32:34;;;;;;;6.50;3.28;;;;;;;11.69;100.00;97326.72;5138308;28;20055;-66
2023/03/27 11:35:06;;;;;;;2.92;1.77;;;;;;;11.54;100.00;97314.44;5138375;27;20158;-67
2023/03/27 11:37:41;;;;;;;1.40;1.30;;;;;;;11.71;100.00;97326.31;5138094;28;20047;-66
2023/03/27 11:40:16;;;;;;;1.42;1.02;;;;;;;11.77;100.00;97319.94;5138492;28;20119;-68